Date,TemperatureHighF,TemperatureAvgF,TemperatureLowF,DewpointHighF,DewpointAvgF,DewpointLowF,HumidityHigh,HumidityAvg,HumidityLow,PressureMaxIn,PressureMinIn,WindSpeedMaxMPH,WindSpeedAvgMPH,GustSpeedMaxMPH,PrecipitationSumIn
2013-1-1,44,42,38,38,36,33,86,79,71,29.78,29.08,0,-999,0,0.00
2013-1-2,51,46,41,49,42,34,97,86,69,29.85,29.67,0,-999,0,0.00
2013-1-3,51,49,47,49,45,42,90,85,78,30.18,29.77,0,-999,0,0.00
2013-1-4,51,50,49,48,47,45,93,89,82,30.35,30.12,0,-999,0,0.00
2013-1-5,50,47,44,47,44,42,95,90,80,30.34,30.12,0,-999,0,0.00
2013-1-6,48,47,45,46,44,42,94,90,81,30.33,30.11,0,-999,0,0.00
2013-1-7,49,46,45,48,45,43,98,96,90,30.13,30.01,0,-999,0,0.00
2013-1-8,51,47,45,48,43,36,99,86,64,30.04,29.84,0,-999,0,0.00
2013-1-9,50,46,40,44,41,38,93,81,70,30.17,30.07,0,-999,0,0.00
2013-1-10,44,40,36,40,37,34,96,89,78,30.08,29.95,0,-999,0,0.00
2013-1-11,44,41,40,40,38,35,95,86,78,30.01,29.93,0,-999,0,0.00
2013-1-12,41,40,38,35,33,31,80,75,69,30.11,29.93,0,-999,0,0.00
2013-1-13,45,39,36,39,36,33,93,88,81,30.11,30.03,0,-999,0,0.00
2013-1-14,44,42,40,37,33,28,85,71,60,29.87,29.82,0,-999,0,0.00
2013-1-15,42,38,33,35,32,29,88,79,68,29.92,29.87,0,-999,0,0.00
2013-1-16,35,33,32,28,27,26,79,76,73,29.96,29.86,0,-999,0,0.00
2013-1-17,38,36,34,30,28,26,81,75,62,30.00,29.78,0,-999,0,0.00
2013-1-18,36,35,34,30,25,22,79,66,57,29.76,29.54,0,-999,0,0.00
2013-1-19,38,37,36,32,31,29,82,77,71,29.74,29.69,0,-999,0,0.00
2013-1-20,36,35,35,31,30,30,84,82,80,29.73,29.69,0,-999,0,0.00
2013-1-23,40,39,38,28,26,24,63,60,55,29.96,29.86,0,-999,0,0.00
2013-1-24,40,38,38,32,30,29,74,71,68,30.03,29.96,0,-999,0,0.00
2013-1-25,38,38,38,35,35,35,88,88,88,29.76,29.76,0,-999,0,0.00
2013-1-26,47,46,45,46,39,31,94,78,58,29.54,28.99,0,-999,0,0.00
2013-1-27,48,45,42,47,40,35,96,83,71,29.25,28.82,0,-999,0,0.00
2013-1-30,48,46,44,37,35,31,75,63,53,29.67,29.32,0,-999,0,0.00
2013-1-31,45,42,40,38,37,36,87,81,75,29.67,29.32,0,-999,0,0.00
2013-2-1,46,42,41,39,34,30,79,71,62,29.85,29.43,0,-999,0,0.00
2013-2-2,45,41,38,37,32,29,86,70,58,30.22,29.89,0,-999,0,0.00
2013-2-3,50,44,39,42,39,36,93,81,62,30.00,29.79,0,-999,0,0.00
2013-2-4,41,38,36,34,31,27,86,74,59,29.53,29.34,0,-999,0,0.00
2013-2-5,39,38,37,29,28,27,73,64,59,29.32,29.28,0,-999,0,0.00
2013-2-6,44,42,41,33,31,28,74,64,54,30.22,30.10,0,-999,0,0.00
2013-2-7,45,40,37,40,35,33,94,80,68,30.21,30.04,0,-999,0,0.00
2013-2-8,45,43,42,37,34,31,82,70,59,30.13,30.10,0,-999,0,0.00
2013-2-9,43,40,39,37,34,30,89,77,66,30.11,29.88,0,-999,0,0.00
2013-2-10,41,39,37,36,33,29,84,79,69,29.85,29.45,0,-999,0,0.00
2013-2-11,42,39,38,35,30,26,87,71,60,29.98,29.54,0,-999,0,0.00
2013-2-12,40,38,36,31,28,27,75,69,64,30.11,29.99,0,-999,0,0.00
2013-2-13,36,35,34,29,28,25,78,74,67,30.11,30.04,0,-999,0,0.00
2013-2-18,44,41,38,36,33,28,79,72,64,30.14,30.10,0,-999,0,0.00
2013-2-19,44,38,33,40,33,26,93,81,67,30.17,30.13,0,-999,0,0.00
2013-2-20,43,41,36,40,35,27,94,80,66,30.35,30.17,0,-999,0,0.00
2013-2-21,38,36,34,26,25,23,70,63,55,30.35,30.32,0,-999,0,0.00
2013-2-22,40,37,35,29,24,21,70,59,53,30.34,30.30,0,-999,0,0.00
2013-2-23,41,38,34,33,28,24,80,67,52,30.40,30.29,0,-999,0,0.00
2013-2-24,40,37,34,36,34,31,93,87,78,30.50,30.41,0,-999,0,0.00
2013-2-25,45,40,37,38,36,34,90,84,73,30.65,30.51,0,-999,0,0.00
2013-2-26,44,40,38,37,36,36,92,87,78,30.71,30.65,0,-999,0,0.00
2013-2-27,46,43,38,37,36,35,87,77,68,30.62,30.61,0,-999,0,0.00
2013-2-28,45,39,33,40,37,32,97,89,80,30.59,30.54,0,-999,0,0.00
2013-3-1,45,43,40,37,36,36,88,77,72,30.57,30.45,0,-999,0,0.00
2013-3-2,47,46,45,44,39,34,94,77,61,30.28,30.19,0,-999,0,0.00
2013-3-3,45,44,43,44,38,34,97,79,68,30.26,30.09,0,-999,0,0.00
2013-3-4,42,42,42,35,34,33,76,72,70,29.97,29.93,0,-999,0,0.00
2013-3-5,47,46,45,41,39,36,81,76,70,29.67,29.65,0,-999,0,0.00
2013-3-6,45,44,43,42,39,37,91,83,75,29.60,29.52,0,-999,0,0.00
2013-3-7,50,48,46,48,46,44,96,91,88,29.42,29.31,0,-999,0,0.00
2013-3-8,54,48,47,49,47,46,96,94,85,29.56,29.33,0,-999,0,0.00
2013-3-9,44,44,43,44,43,41,99,97,92,29.67,29.56,0,-999,0,0.00
2013-3-10,41,38,36,35,31,27,83,76,69,29.71,29.66,0,-999,0,0.00
2013-3-11,33,32,32,22,21,20,65,62,59,29.78,29.75,0,-999,0,0.00
2013-3-12,44,35,30,23,20,17,63,54,41,29.93,29.90,0,-999,0,0.00
2013-3-13,44,44,43,29,29,29,57,55,53,29.93,29.93,0,-999,0,0.00
2013-3-14,39,34,30,26,24,23,75,66,57,30.09,30.04,0,-999,0,0.00
2013-3-15,46,44,41,43,41,37,89,87,82,29.81,29.42,0,-999,0,0.00
2013-3-16,44,42,40,39,37,35,91,83,69,29.34,29.28,0,-999,0,0.00
2013-3-17,48,44,42,37,35,33,79,69,57,29.34,29.21,0,-999,0,0.00
2013-3-18,44,43,41,38,36,34,89,77,68,29.36,29.19,0,-999,0,0.00
2013-3-19,44,43,42,39,37,36,85,79,75,29.48,29.41,0,-999,0,0.00
2013-3-20,47,42,41,39,38,34,89,83,64,29.95,29.51,0,-999,0,0.00
2013-3-21,42,40,39,40,38,36,93,90,88,29.96,29.78,0,-999,0,0.00
2013-3-22,45,43,41,42,40,37,92,89,85,29.72,29.57,0,-999,0,0.00
2013-3-23,41,38,36,36,34,30,92,83,75,29.86,29.67,0,-999,0,0.00
2013-3-24,36,35,33,32,29,27,84,79,73,29.96,29.86,0,-999,0,0.00
2013-3-25,37,35,34,27,24,21,69,63,54,30.00,29.95,0,-999,0,0.00
2013-3-26,39,37,35,24,21,18,58,51,45,29.99,29.94,0,-999,0,0.00
2013-3-27,39,37,35,24,23,22,63,56,49,29.91,29.90,0,-999,0,0.00
2013-3-28,42,37,32,23,22,20,62,53,43,29.96,29.92,0,-999,0,0.00
2013-3-29,44,38,33,28,23,19,65,56,52,29.90,29.79,0,-999,0,0.00
2013-3-30,41,39,37,27,24,20,63,55,47,30.04,29.91,0,-999,0,0.00
2013-3-31,41,37,32,27,21,-100,72,60,41,30.04,29.99,0,-999,0,0.00
2013-4-1,41,37,32,27,24,22,70,59,49,30.07,30.01,0,-999,0,0.00
2013-4-2,45,39,35,29,27,26,70,62,52,30.19,30.12,0,-999,0,0.00
2013-4-3,45,41,35,32,29,26,77,63,45,30.34,30.27,0,-999,0,0.00
2013-4-4,45,41,38,33,29,26,71,62,49,30.32,30.27,0,-999,0,0.00
2013-4-5,49,39,36,33,32,31,81,74,53,30.29,30.25,0,-999,0,0.00
2013-4-6,47,42,37,37,36,34,93,77,66,30.31,30.24,0,-999,0,0.00
2013-4-7,43,40,38,35,32,31,81,75,68,30.22,30.01,0,-999,0,0.00
2013-4-8,43,40,38,30,28,24,74,63,46,29.98,29.77,0,-999,0,0.00
2013-4-9,45,38,35,25,22,18,57,52,36,29.77,29.68,0,-999,0,0.00
2013-4-10,45,40,37,32,30,26,72,65,56,29.74,29.63,0,-999,0,0.00
2013-4-11,42,42,41,36,33,30,80,72,64,29.56,29.43,0,-999,0,0.00
2013-4-12,44,41,38,38,36,33,87,82,76,29.66,29.42,0,-999,0,0.00
2013-4-13,51,44,39,39,36,32,86,72,49,29.71,29.37,0,-999,0,0.00
2013-4-14,57,50,44,45,43,40,86,78,55,29.36,29.26,0,-999,0,0.00
2013-4-15,54,51,48,43,40,36,74,65,55,29.67,29.20,0,-999,0,0.00
2013-4-16,52,47,45,44,41,37,92,80,68,29.62,29.11,0,-999,0,0.00
2013-4-17,47,44,40,44,40,38,96,84,73,29.69,29.20,0,-999,0,0.00
2013-4-18,47,45,41,45,42,35,96,87,78,29.82,28.94,0,-999,0,0.00
2013-4-19,46,42,39,39,35,28,88,74,62,30.31,29.87,0,-999,0,0.00
2013-4-20,53,48,44,40,38,33,78,67,57,30.30,30.04,0,-999,0,0.00
2013-4-21,48,46,44,42,39,37,89,79,66,30.04,29.87,0,-999,0,0.00
2013-4-22,55,49,44,46,40,38,80,71,52,29.87,29.56,0,-999,0,0.00
2013-4-23,54,50,48,41,38,36,75,63,52,30.06,29.70,0,-999,0,0.00
2013-4-24,53,49,45,50,39,32,95,70,48,30.22,29.89,0,-999,0,0.00
2013-4-25,50,46,42,38,36,33,82,68,58,30.22,30.02,0,-999,0,0.00
2013-4-26,46,43,40,38,35,33,83,73,61,30.04,29.88,0,-999,0,0.00
2013-4-27,53,45,41,37,33,28,81,63,38,30.16,30.01,0,-999,0,0.00
2013-4-28,51,46,41,42,36,32,82,70,59,29.97,29.61,0,-999,0,0.00
2013-4-29,50,46,42,38,35,32,80,68,51,30.07,29.60,0,-999,0,0.00
2013-4-30,56,46,41,38,34,27,83,65,35,30.34,30.11,0,-999,0,0.00
2013-5-1,52,49,45,40,35,29,75,59,43,30.25,30.12,0,-999,0,0.00
2013-5-2,55,47,40,40,37,33,82,67,47,30.29,30.04,0,-999,0,0.00
2013-5-3,54,51,46,47,44,40,83,77,70,30.01,29.67,0,-999,0,0.00
2013-5-4,52,47,40,40,36,31,80,66,49,29.89,29.72,0,-999,0,0.00
2013-5-5,62,56,51,51,46,41,76,70,61,30.04,29.90,0,-999,0,0.00
2013-5-6,58,54,51,49,47,45,85,78,70,30.07,30.02,0,-999,0,0.00
2013-5-7,57,50,47,47,45,42,91,83,66,30.11,29.96,0,-999,0,0.00
2013-5-8,49,47,45,47,45,43,100,93,78,29.96,29.56,0,-999,0,0.00
2013-5-9,49,47,45,45,42,40,97,85,75,29.59,29.40,0,-999,0,0.00
2013-5-10,52,48,45,45,43,40,100,85,67,29.64,29.39,0,-999,0,0.00
2013-5-11,50,47,45,45,42,40,90,83,76,29.70,29.49,0,-999,0,0.00
2013-5-12,49,47,45,46,42,36,89,81,66,29.78,29.55,0,-999,0,0.00
2013-5-13,49,46,43,38,36,34,79,69,54,29.58,29.40,0,-999,0,0.00
2013-5-14,48,45,43,42,39,36,88,78,71,29.44,29.30,0,-999,0,0.00
2013-5-15,51,46,43,43,40,37,90,82,65,29.44,29.30,0,-999,0,0.00
2013-5-16,53,47,42,42,28,-100,85,70,47,29.75,29.39,0,-999,0,0.00
2013-5-17,59,50,44,42,36,-100,84,65,34,29.90,29.76,0,-999,0,0.00
2013-5-18,56,54,51,49,46,42,76,73,69,29.87,29.80,0,-999,0,0.00
2013-5-21,50,49,48,44,44,42,85,80,76,30.11,30.08,0,-999,0,0.00
2013-5-22,51,48,42,44,36,31,84,65,46,30.10,29.99,0,-999,0,0.00
2013-5-23,47,44,40,34,31,29,72,61,50,30.01,29.91,0,-999,0,0.00
2013-5-24,56,50,43,44,38,32,85,64,45,30.25,29.89,0,-999,0,0.00
2013-5-25,59,50,43,44,41,39,87,71,48,30.24,30.11,0,-999,0,0.00
2013-5-26,53,49,47,47,44,41,90,81,69,30.11,29.75,0,-999,0,0.00
2013-5-27,56,51,49,46,44,40,87,76,57,29.71,29.35,0,-999,0,0.00
2013-5-28,59,54,49,45,42,41,82,65,50,29.86,29.47,0,-999,0,0.00
2013-5-29,61,54,50,47,41,34,82,61,38,30.08,29.88,0,-999,0,0.00
2013-5-30,62,57,50,49,45,41,85,66,54,30.14,30.04,0,-999,0,0.00
2013-5-31,55,51,47,49,44,38,94,80,55,30.25,30.14,0,-999,0,0.00
2013-6-1,52,47,42,47,42,39,94,82,70,30.32,30.22,0,-999,0,0.00
2013-6-2,56,50,47,45,43,42,89,78,62,30.45,30.32,0,-999,0,0.00
2013-6-3,60,52,46,51,47,42,91,82,70,30.54,30.45,0,-999,0,0.00
2013-6-4,59,55,51,51,49,45,94,81,63,30.55,30.38,0,-999,0,0.00
2013-6-5,58,50,48,49,47,45,100,90,73,30.37,30.23,0,-999,0,0.00
2013-6-6,55,52,48,48,46,45,88,81,69,30.32,30.22,0,-999,0,0.00
2013-6-7,55,52,50,51,49,48,95,91,83,30.39,30.31,0,-999,0,0.00
2013-6-10,63,61,58,51,50,49,76,68,63,29.96,29.90,0,-999,0,0.00
2013-6-11,58,56,53,54,49,46,87,79,69,29.90,29.66,0,-999,0,0.00
2013-6-12,56,54,53,54,52,49,97,93,83,29.66,29.58,0,-999,0,0.00
2013-6-13,55,51,45,48,46,43,97,82,64,29.85,29.63,0,-999,0,0.00
2013-6-14,57,53,51,52,48,45,96,84,72,29.85,29.49,0,-999,0,0.00
2013-6-15,58,54,49,50,48,44,97,80,71,29.70,29.37,0,-999,0,0.00
2013-6-16,56,53,51,51,49,47,94,86,74,29.96,29.70,0,-999,0,0.00
2013-6-17,58,55,52,51,48,45,90,78,67,30.09,30.02,0,-999,0,0.00
2013-6-18,59,55,52,53,49,47,88,80,68,30.05,29.97,0,-999,0,0.00
2013-6-19,59,54,50,51,49,48,94,83,71,30.05,30.00,0,-999,0,0.00